Time;durP1;ratioP1;P1;durP2;ratioP2;P2;SDS_P1;SDS_P2;PMS_P1;PMS_P2;Temp;Humidity;BMP_temperature;BMP_pressure;BME280_temperature;BME280_humidity;BME280_pressure;Samples;Min_cycle;Max_cycle;Signal;HPM_P1;HPM_P2
2021/04/19 00:01:12;;;;;;;28.75;12.93;;;9.50;88.10;;;;;;4964053;28;20031;-71
2021/04/19 00:03:38;;;;;;;24.75;13.48;;;9.50;88.20;;;;;;4964932;28;20408;-71
2021/04/19 00:06:04;;;;;;;26.38;13.00;;;9.50;88.50;;;;;;4965618;28;20114;-71
2021/04/19 00:08:30;;;;;;;26.27;13.88;;;9.40;88.50;;;;;;4964178;28;20031;-71
2021/04/19 00:10:57;;;;;;;27.08;13.70;;;9.40;88.20;;;;;;4964865;28;20038;-70
2021/04/19 00:13:23;;;;;;;27.35;14.55;;;9.40;88.60;;;;;;4964995;28;20061;-72
2021/04/19 00:15:48;;;;;;;26.38;13.98;;;9.40;88.70;;;;;;4963763;28;20493;-71
2021/04/19 00:18:15;;;;;;;27.75;15.65;;;9.30;88.70;;;;;;4963595;28;20474;-71
2021/04/19 00:20:40;;;;;;;27.38;15.07;;;9.30;89.40;;;;;;4964626;28;20106;-70
2021/04/19 00:23:06;;;;;;;29.50;15.32;;;9.30;89.00;;;;;;4964726;28;20549;-70
2021/04/19 00:25:32;;;;;;;26.58;15.13;;;9.30;88.70;;;;;;4964875;28;20039;-71
2021/04/19 00:27:58;;;;;;;28.27;15.73;;;9.30;88.90;;;;;;4963586;28;20035;-70
2021/04/19 00:30:23;;;;;;;26.48;15.05;;;9.30;88.50;;;;;;4964231;28;20039;-70
2021/04/19 00:32:49;;;;;;;34.00;16.55;;;9.30;89.10;;;;;;4963113;28;20089;-72
2021/04/19 00:35:16;;;;;;;27.13;15.48;;;9.30;88.90;;;;;;4963838;28;20058;-71
2021/04/19 00:37:41;;;;;;;32.45;17.13;;;9.30;88.70;;;;;;4964003;28;20441;-71
2021/04/19 00:40:13;;;;;;;26.90;16.15;;;9.30;89.10;;;;;;4962687;28;20019;-71
2021/04/19 00:42:41;;;;;;;30.80;16.77;;;9.30;89.20;;;;;;4965454;28;20027;-71
2021/04/19 00:45:08;;;;;;;29.85;16.15;;;9.30;88.80;;;;;;4962699;28;20027;-71
2021/04/19 00:47:35;;;;;;;33.08;15.98;;;9.30;89.00;;;;;;4965046;28;20488;-70
2021/04/19 00:50:01;;;;;;;27.25;15.35;;;9.30;89.30;;;;;;4966651;28;20035;-71
2021/04/19 00:52:28;;;;;;;28.10;15.95;;;9.30;89.30;;;;;;4963694;28;20031;-71
2021/04/19 00:54:54;;;;;;;34.08;17.73;;;9.30;89.40;;;;;;4962516;28;20038;-70
2021/04/19 00:57:20;;;;;;;36.50;17.33;;;9.30;89.00;;;;;;4964799;28;20259;-70
2021/04/19 00:59:45;;;;;;;31.25;18.02;;;9.30;89.40;;;;;;4962488;28;20077;-70
2021/04/19 01:02:11;;;;;;;36.65;18.23;;;9.30;89.20;;;;;;4963827;28;20047;-71
2021/04/19 01:04:37;;;;;;;29.88;17.17;;;9.30;89.30;;;;;;4963380;28;20046;-71
2021/04/19 01:07:03;;;;;;;35.00;17.17;;;9.30;89.30;;;;;;4962068;28;20497;-71
2021/04/19 01:09:28;;;;;;;32.70;17.33;;;9.30;89.60;;;;;;4964241;28;20573;-70
2021/04/19 01:11:54;;;;;;;30.48;17.77;;;9.30;89.60;;;;;;4963446;28;20385;-70
2021/04/19 01:14:20;;;;;;;31.58;17.02;;;9.30;89.10;;;;;;4964601;28;20034;-71
2021/04/19 01:16:45;;;;;;;32.42;16.83;;;9.30;89.60;;;;;;4963146;28;20035;-70
2021/04/19 01:19:11;;;;;;;31.25;17.50;;;9.20;89.40;;;;;;4963627;28;20041;-72
2021/04/19 01:21:37;;;;;;;30.38;16.33;;;9.20;89.60;;;;;;4962543;28;20421;-72
2021/04/19 01:24:03;;;;;;;30.00;17.70;;;9.20;89.50;;;;;;4963589;28;20027;-70
2021/04/19 01:26:29;;;;;;;30.35;16.80;;;9.20;89.80;;;;;;4961589;28;20061;-70
2021/04/19 01:28:55;;;;;;;32.85;17.50;;;9.20;89.70;;;;;;4963390;28;20477;-70
2021/04/19 01:31:21;;;;;;;31.60;17.00;;;9.20;89.70;;;;;;4963858;28;20039;-70
2021/04/19 01:33:46;;;;;;;29.10;16.85;;;9.20;90.00;;;;;;4963203;28;20031;-70
2021/04/19 01:36:12;;;;;;;34.45;18.73;;;9.20;89.00;;;;;;4963031;28;20093;-70
2021/04/19 01:38:38;;;;;;;36.20;18.80;;;9.20;89.80;;;;;;4969249;28;20058;-71
2021/04/19 01:41:04;;;;;;;33.47;18.50;;;9.20;90.00;;;;;;4968184;28;20073;-71
2021/04/19 01:43:30;;;;;;;30.63;17.88;;;9.20;90.00;;;;;;4970490;28;20042;-72
2021/04/19 01:45:56;;;;;;;28.40;17.35;;;9.20;90.00;;;;;;4964494;28;20053;-71
2021/04/19 01:48:24;;;;;;;29.10;16.48;;;9.10;90.00;;;;;;4970931;28;20038;-71
2021/04/19 01:50:51;;;;;;;30.10;18.00;;;9.10;90.00;;;;;;4969846;28;20027;-69
2021/04/19 01:53:17;;;;;;;35.72;17.63;;;9.10;90.20;;;;;;4968757;28;20117;-71
2021/04/19 01:55:46;;;;;;;36.38;18.58;;;9.10;90.20;;;;;;4965334;28;20030;-70
2021/04/19 01:58:16;;;;;;;36.35;17.95;;;9.10;90.20;;;;;;4962275;28;20023;-71
2021/04/19 02:00:44;;;;;;;29.35;17.75;;;9.10;90.30;;;;;;4961229;28;20030;-71
2021/04/19 02:03:19;;;;;;;32.97;17.08;;;9.10;90.20;;;;;;4962374;28;20482;-71
2021/04/19 02:05:56;;;;;;;33.70;17.63;;;9.20;90.00;;;;;;4962961;28;20035;-72
2021/04/19 02:08:35;;;;;;;28.88;17.67;;;9.10;90.00;;;;;;4961222;28;20037;-71
2021/04/19 02:11:40;;;;;;;32.65;18.33;;;9.10;90.00;;;;;;4961794;28;20524;-71
2021/04/19 02:14:17;;;;;;;33.05;17.20;;;9.10;90.20;;;;;;4963747;28;20618;-71
2021/04/19 02:17:28;;;;;;;33.72;18.70;;;9.10;90.30;;;;;;4960535;28;20051;-71
2021/04/19 02:20:13;;;;;;;33.20;18.80;;;9.10;90.30;;;;;;4957460;28;20046;-71
2021/04/19 02:22:43;;;;;;;33.78;18.05;;;9.10;90.50;;;;;;4961770;28;20058;-71
2021/04/19 02:25:14;;;;;;;30.27;18.05;;;9.10;90.50;;;;;;4961490;28;20097;-70
2021/04/19 02:27:46;;;;;;;35.05;18.38;;;9.00;90.40;;;;;;4961440;28;20480;-70
2021/04/19 02:30:15;;;;;;;32.30;17.23;;;9.10;90.40;;;;;;4962126;28;20045;-71
2021/04/19 02:32:54;;;;;;;33.28;19.33;;;9.10;90.40;;;;;;4962319;28;20130;-71
2021/04/19 02:35:22;;;;;;;33.30;18.25;;;9.00;90.50;;;;;;4963089;28;20050;-70
2021/04/19 02:37:52;;;;;;;30.63;18.65;;;9.00;90.50;;;;;;4961564;28;20027;-70
2021/04/19 02:40:18;;;;;;;31.27;19.10;;;9.10;90.50;;;;;;4976585;28;20390;-71
2021/04/19 02:42:48;;;;;;;39.53;19.65;;;9.10;90.40;;;;;;4974552;28;20025;-70
2021/04/19 02:45:15;;;;;;;32.05;19.20;;;9.10;90.60;;;;;;4960517;28;20468;-70
2021/04/19 02:47:45;;;;;;;36.10;19.90;;;9.10;90.40;;;;;;4961862;28;20039;-71
2021/04/19 02:50:14;;;;;;;33.35;18.90;;;9.10;90.50;;;;;;4963195;28;20046;-71
2021/04/19 02:52:42;;;;;;;31.75;18.77;;;9.20;90.40;;;;;;4961951;28;20105;-70
2021/04/19 02:55:10;;;;;;;37.83;20.25;;;9.10;90.40;;;;;;4961015;28;20038;-70
2021/04/19 02:57:44;;;;;;;32.25;19.98;;;9.10;90.40;;;;;;4961889;28;20493;-71
2021/04/19 03:00:11;;;;;;;31.83;18.80;;;9.10;90.30;;;;;;4961523;28;20038;-71
2021/04/19 03:02:37;;;;;;;31.48;18.63;;;9.10;90.30;;;;;;4958477;28;20118;-71
2021/04/19 03:05:06;;;;;;;37.50;19.27;;;9.10;90.40;;;;;;4961267;28;20042;-72
2021/04/19 03:07:39;;;;;;;32.22;19.17;;;9.10;90.40;;;;;;4961115;28;20034;-71
2021/04/19 03:10:11;;;;;;;34.83;19.52;;;9.00;90.30;;;;;;4963427;28;20432;-70
2021/04/19 03:12:41;;;;;;;35.55;19.48;;;9.00;90.50;;;;;;4962059;28;20555;-70
2021/04/19 03:15:10;;;;;;;36.35;20.48;;;9.00;90.50;;;;;;4963472;28;20098;-70
2021/04/19 03:17:37;;;;;;;33.08;20.35;;;9.00;90.50;;;;;;4961183;28;20027;-71
2021/04/19 03:20:14;;;;;;;32.20;19.15;;;9.10;90.50;;;;;;4961396;28;20031;-70
2021/04/19 03:22:44;;;;;;;38.85;21.35;;;9.10;90.60;;;;;;4961567;28;20046;-72
2021/04/19 03:25:11;;;;;;;42.42;21.40;;;9.00;90.50;;;;;;4961642;28;20030;-71
2021/04/19 03:27:40;;;;;;;35.70;20.20;;;9.00;90.50;;;;;;4960491;28;20035;-71
2021/04/19 03:30:09;;;;;;;37.45;19.90;;;9.00;90.70;;;;;;4961713;28;20098;-71
2021/04/19 03:32:46;;;;;;;35.42;18.35;;;9.00;90.70;;;;;;4961396;28;20113;-70
2021/04/19 03:35:16;;;;;;;38.53;20.23;;;9.00;90.50;;;;;;4960388;28;20034;-71
2021/04/19 03:37:45;;;;;;;35.25;19.40;;;8.90;90.30;;;;;;4961687;28;20020;-71
2021/04/19 03:40:21;;;;;;;34.83;18.48;;;8.90;90.70;;;;;;4991035;28;20516;-70
2021/04/19 03:42:51;;;;;;;33.85;19.63;;;8.80;90.50;;;;;;4960957;28;20031;-71
2021/04/19 03:45:18;;;;;;;41.20;21.40;;;8.80;90.70;;;;;;4960274;28;20401;-71
2021/04/19 03:47:46;;;;;;;40.30;22.48;;;8.80;90.80;;;;;;4959109;28;20685;-70
2021/04/19 03:50:13;;;;;;;36.22;21.17;;;8.80;90.80;;;;;;4960384;28;20065;-70
2021/04/19 03:52:46;;;;;;;43.00;22.58;;;8.80;90.70;;;;;;4962050;28;20030;-72
2021/04/19 03:55:13;;;;;;;38.75;20.80;;;8.80;90.80;;;;;;4962305;28;20042;-71
2021/04/19 03:57:42;;;;;;;42.28;22.13;;;8.80;90.60;;;;;;4964731;28;20078;-73
2021/04/19 04:00:11;;;;;;;39.92;21.23;;;8.80;90.70;;;;;;4966231;28;20039;-72
2021/04/19 04:02:41;;;;;;;39.85;22.60;;;8.80;90.50;;;;;;4962412;28;20050;-73
2021/04/19 04:05:08;;;;;;;47.08;23.20;;;8.80;90.90;;;;;;4964769;28;20035;-70
2021/04/19 04:07:35;;;;;;;44.30;22.35;;;8.80;90.50;;;;;;4977689;28;20030;-71
2021/04/19 04:10:03;;;;;;;45.90;23.30;;;8.80;90.70;;;;;;4964992;28;20373;-70
2021/04/19 04:12:29;;;;;;;45.30;24.55;;;8.80;90.70;;;;;;4963663;28;20177;-71
2021/04/19 04:14:56;;;;;;;38.05;21.27;;;8.80;90.90;;;;;;4965811;28;20400;-71
2021/04/19 04:17:23;;;;;;;43.50;21.17;;;8.80;90.70;;;;;;4963172;28;20447;-72
2021/04/19 04:19:49;;;;;;;35.25;21.70;;;8.70;90.80;;;;;;4963538;28;20037;-71
2021/04/19 04:22:16;;;;;;;39.20;22.42;;;8.70;91.00;;;;;;4966394;28;20022;-71
2021/04/19 04:24:43;;;;;;;38.15;21.60;;;8.60;91.10;;;;;;4980319;28;20058;-72
2021/04/19 04:27:10;;;;;;;39.58;20.80;;;8.70;90.90;;;;;;4963290;28;20113;-70
2021/04/19 04:29:36;;;;;;;34.78;19.98;;;8.60;90.90;;;;;;4961891;28;20054;-72
2021/04/19 04:32:02;;;;;;;44.47;22.50;;;8.50;91.20;;;;;;4963388;28;20042;-71
2021/04/19 04:36:54;;;;;;;37.88;19.83;;;8.50;91.10;;;;;;4984425;23;20066;-74
2021/04/19 04:39:19;;;;;;;36.85;20.05;;;8.50;91.10;;;;;;4964714;28;20392;-73
2021/04/19 04:41:45;;;;;;;36.50;21.23;;;8.50;91.10;;;;;;4964694;28;20030;-72
2021/04/19 04:44:25;;;;;;;30.10;18.48;;;8.50;91.10;;;;;;4964830;28;20603;-73
2021/04/19 04:47:24;;;;;;;37.03;19.23;;;8.50;91.10;;;;;;4963507;28;20029;-73
2021/04/19 04:50:01;;;;;;;41.53;21.83;;;8.50;91.00;;;;;;4963253;28;20058;-73
2021/04/19 04:52:37;;;;;;;36.78;20.98;;;8.40;91.20;;;;;;4978335;28;20046;-73
2021/04/19 04:55:05;;;;;;;38.40;20.48;;;8.40;91.40;;;;;;4963106;28;20035;-74
2021/04/19 04:57:31;;;;;;;36.17;21.48;;;8.40;91.30;;;;;;4962169;28;20061;-75
2021/04/19 04:59:59;;;;;;;40.33;22.52;;;8.40;91.40;;;;;;4963991;28;20039;-74
2021/04/19 05:02:25;;;;;;;39.50;22.42;;;8.50;91.50;;;;;;4964509;28;20023;-74
2021/04/19 05:04:53;;;;;;;47.50;23.42;;;8.50;91.40;;;;;;4963071;28;20073;-74
2021/04/19 05:07:19;;;;;;;45.70;22.42;;;8.50;91.50;;;;;;4963028;28;20031;-74
2021/04/19 05:09:47;;;;;;;44.65;23.60;;;8.50;91.20;;;;;;4963183;28;20361;-74
2021/04/19 05:12:14;;;;;;;36.10;20.52;;;8.50;91.30;;;;;;4964300;28;20066;-72
2021/04/19 05:14:41;;;;;;;39.70;21.45;;;8.50;91.30;;;;;;4965179;28;20640;-74
2021/04/19 05:17:08;;;;;;;36.35;21.52;;;8.50;91.60;;;;;;4961276;28;20027;-73
2021/04/19 05:19:34;;;;;;;35.70;19.48;;;8.50;91.40;;;;;;4963381;28;20467;-73
2021/04/19 05:22:01;;;;;;;38.65;21.25;;;8.50;91.10;;;;;;4964758;28;20118;-74
2021/04/19 05:24:26;;;;;;;39.22;22.13;;;8.50;91.20;;;;;;4966976;28;20038;-73
2021/04/19 05:26:52;;;;;;;33.20;19.75;;;8.50;91.20;;;;;;4964215;28;20467;-72
2021/04/19 05:29:19;;;;;;;34.38;19.67;;;8.50;91.20;;;;;;4967163;28;20034;-73
2021/04/19 05:31:45;;;;;;;35.80;20.88;;;8.50;91.30;;;;;;4961334;28;20030;-73
2021/04/19 05:34:11;;;;;;;36.20;20.38;;;8.50;91.30;;;;;;4966354;28;20072;-71
2021/04/19 05:36:38;;;;;;;36.97;20.80;;;8.50;91.20;;;;;;4959799;28;20050;-75
2021/04/19 05:39:05;;;;;;;30.60;17.50;;;8.40;91.30;;;;;;4964496;28;20026;-75
2021/04/19 05:41:32;;;;;;;30.77;19.35;;;8.40;91.00;;;;;;4963882;28;20023;-73
2021/04/19 05:43:58;;;;;;;32.70;18.63;;;8.40;91.20;;;;;;4963705;28;20651;-74
2021/04/19 05:46:24;;;;;;;32.85;18.45;;;8.40;91.30;;;;;;4964068;28;20519;-74
2021/04/19 05:48:49;;;;;;;35.08;19.23;;;8.40;91.40;;;;;;4964265;28;20051;-73
2021/04/19 05:51:25;;;;;;;35.22;19.90;;;8.40;91.30;;;;;;4965799;28;20027;-74
2021/04/19 05:53:53;;;;;;;32.97;19.02;;;8.40;91.30;;;;;;4964989;28;20070;-74
2021/04/19 05:56:47;;;;;;;34.55;19.42;;;8.40;91.30;;;;;;4961445;28;20564;-74
2021/04/19 05:59:17;;;;;;;36.65;21.75;;;8.40;91.40;;;;;;4949034;28;20050;-73
2021/04/19 06:01:46;;;;;;;39.88;20.92;;;8.40;91.40;;;;;;4964565;28;20492;-73
2021/04/19 06:04:56;;;;;;;38.63;22.23;;;8.50;91.50;;;;;;4964341;28;20034;-74
2021/04/19 06:07:28;;;;;;;43.28;23.95;;;8.50;91.30;;;;;;4960015;28;20382;-73
2021/04/19 06:10:12;;;;;;;40.20;22.63;;;8.50;91.30;;;;;;4965066;28;20097;-74
2021/04/19 06:12:41;;;;;;;40.47;22.58;;;8.50;91.50;;;;;;4965214;28;20031;-75
2021/04/19 06:15:13;;;;;;;39.35;22.25;;;8.40;91.40;;;;;;4964834;28;20023;-75
2021/04/19 06:17:51;;;;;;;40.47;21.70;;;8.40;91.20;;;;;;4963289;28;20133;-75
2021/04/19 06:20:20;;;;;;;41.45;21.45;;;8.40;91.40;;;;;;4964391;28;20027;-76
2021/04/19 06:22:54;;;;;;;37.90;21.83;;;8.40;91.50;;;;;;4961195;28;20026;-73
2021/04/19 06:25:21;;;;;;;36.47;21.45;;;8.40;91.50;;;;;;4962680;28;20065;-74
2021/04/19 06:27:48;;;;;;;35.03;20.42;;;8.40;91.40;;;;;;4965373;28;20527;-72
2021/04/19 06:30:16;;;;;;;35.97;21.60;;;8.40;91.20;;;;;;4992877;28;20082;-75
2021/04/19 06:32:43;;;;;;;34.00;19.40;;;8.40;91.30;;;;;;4988886;28;20042;-73
2021/04/19 06:35:12;;;;;;;30.30;19.15;;;8.40;91.10;;;;;;4965389;28;20054;-74
2021/04/19 06:37:37;;;;;;;32.75;19.80;;;8.40;91.10;;;;;;4965222;28;20031;-75
2021/04/19 06:40:06;;;;;;;32.50;18.95;;;8.30;91.20;;;;;;4964579;28;20045;-75
2021/04/19 06:42:32;;;;;;;32.20;19.25;;;8.40;91.20;;;;;;4962277;28;20084;-75
2021/04/19 06:45:04;;;;;;;34.72;19.25;;;8.30;91.20;;;;;;4964093;28;20065;-74
2021/04/19 06:47:34;;;;;;;29.27;17.63;;;8.40;91.30;;;;;;4979382;28;20536;-74
2021/04/19 06:50:01;;;;;;;30.30;17.60;;;8.50;91.20;;;;;;4964107;28;20050;-74
2021/04/19 06:52:27;;;;;;;29.58;15.63;;;8.40;91.00;;;;;;4961813;28;20126;-71
2021/04/19 06:54:53;;;;;;;25.08;15.88;;;8.40;91.10;;;;;;4965026;28;20102;-73
2021/04/19 06:57:21;;;;;;;27.63;16.58;;;8.40;91.10;;;;;;4967881;28;20033;-76
2021/04/19 06:59:47;;;;;;;27.90;17.15;;;8.40;91.10;;;;;;4963629;28;20035;-72
2021/04/19 07:02:21;;;;;;;26.92;16.60;;;8.40;91.10;;;;;;4966017;28;20105;-73
2021/04/19 07:04:51;;;;;;;28.17;16.45;;;8.50;91.10;;;;;;4964238;28;20476;-74
2021/04/19 07:07:26;;;;;;;29.00;16.13;;;8.50;91.10;;;;;;4964267;28;20027;-75
2021/04/19 07:09:56;;;;;;;30.40;16.33;;;8.50;90.90;;;;;;4970471;28;20071;-75
2021/04/19 07:12:23;;;;;;;26.45;16.92;;;8.60;90.80;;;;;;4961810;28;20647;-76
2021/04/19 07:14:51;;;;;;;24.08;15.10;;;8.60;90.80;;;;;;4968298;28;20488;-76
2021/04/19 07:17:17;;;;;;;25.55;16.13;;;8.70;91.00;;;;;;4961978;28;20023;-74
2021/04/19 07:19:44;;;;;;;26.38;15.95;;;8.70;90.60;;;;;;4962151;28;20536;-69
2021/04/19 07:22:15;;;;;;;27.58;16.35;;;8.80;90.60;;;;;;4961892;28;20038;-74
2021/04/19 07:24:41;;;;;;;28.63;18.25;;;8.80;90.70;;;;;;4962543;28;20049;-75
2021/04/19 07:27:11;;;;;;;25.80;16.88;;;8.80;90.60;;;;;;4962686;28;20033;-73
2021/04/19 07:29:37;;;;;;;28.23;17.35;;;8.80;90.70;;;;;;4958681;28;20031;-75
2021/04/19 07:32:03;;;;;;;24.35;16.08;;;8.80;90.70;;;;;;4968595;28;20027;-75
2021/04/19 07:34:31;;;;;;;29.33;16.73;;;8.90;90.60;;;;;;4968529;28;20037;-75
2021/04/19 07:36:59;;;;;;;26.42;16.67;;;8.90;90.50;;;;;;4968899;28;20037;-76
2021/04/19 07:39:27;;;;;;;27.30;16.65;;;8.90;90.50;;;;;;4966650;28;20049;-74
2021/04/19 07:41:57;;;;;;;28.75;16.65;;;8.90;90.70;;;;;;4966414;28;20027;-75
2021/04/19 07:44:56;;;;;;;26.15;16.48;;;9.00;90.10;;;;;;4967869;28;20031;-74
2021/04/19 07:47:38;;;;;;;27.60;16.25;;;9.00;90.30;;;;;;4979423;28;20106;-75
2021/04/19 07:50:21;;;;;;;25.15;15.35;;;9.10;90.20;;;;;;4968563;28;20037;-74
2021/04/19 07:53:02;;;;;;;25.75;15.65;;;9.10;90.40;;;;;;4966723;28;20049;-75
2021/04/19 07:55:38;;;;;;;30.65;16.30;;;9.20;90.20;;;;;;4966473;28;20134;-75
2021/04/19 07:58:17;;;;;;;25.13;15.30;;;9.20;90.10;;;;;;4967434;28;20103;-75
2021/04/19 08:00:43;;;;;;;26.88;15.68;;;9.20;90.00;;;;;;4967221;28;20022;-74
2021/04/19 08:03:10;;;;;;;25.02;15.07;;;9.20;90.30;;;;;;4968790;28;20102;-74
2021/04/19 08:05:49;;;;;;;27.45;15.80;;;9.20;90.40;;;;;;4965905;28;20035;-75
2021/04/19 08:08:17;;;;;;;24.50;15.45;;;9.30;90.50;;;;;;4988686;28;20038;-74
2021/04/19 08:10:45;;;;;;;23.75;13.90;;;9.40;90.30;;;;;;4966539;28;20540;-75
2021/04/19 08:13:19;;;;;;;23.73;15.45;;;9.40;90.10;;;;;;4979323;28;20043;-74
2021/04/19 08:15:46;;;;;;;24.27;14.32;;;9.50;90.10;;;;;;4968548;28;20034;-75
2021/04/19 08:18:15;;;;;;;28.42;16.15;;;9.50;90.20;;;;;;4965578;28;20397;-75
2021/04/19 08:21:07;;;;;;;28.13;15.90;;;9.60;90.20;;;;;;4968470;28;20130;-75
2021/04/19 08:23:44;;;;;;;25.42;15.15;;;9.70;90.20;;;;;;4964922;28;20166;-74
2021/04/19 08:26:13;;;;;;;25.90;15.15;;;9.80;90.10;;;;;;4965127;28;20035;-75
2021/04/19 08:28:49;;;;;;;24.10;15.23;;;9.90;89.50;;;;;;4968520;28;20027;-75
2021/04/19 08:31:17;;;;;;;27.52;17.00;;;10.00;89.60;;;;;;4968732;28;20086;-73
2021/04/19 08:33:44;;;;;;;26.02;16.98;;;10.00;89.70;;;;;;4968481;28;20035;-73
2021/04/19 08:36:12;;;;;;;29.17;17.08;;;10.10;89.60;;;;;;4982336;28;20102;-74
2021/04/19 08:38:38;;;;;;;32.53;19.50;;;10.20;89.20;;;;;;4968671;28;20501;-75
2021/04/19 08:41:05;;;;;;;29.80;17.50;;;10.30;88.70;;;;;;4967044;28;20031;-71
2021/04/19 08:43:34;;;;;;;30.30;18.48;;;10.30;89.10;;;;;;4967086;28;20729;-75
2021/04/19 08:46:01;;;;;;;28.98;17.15;;;10.30;89.00;;;;;;4967574;28;20049;-74
2021/04/19 08:48:27;;;;;;;31.25;18.10;;;10.30;88.70;;;;;;4967571;28;20034;-75
2021/04/19 08:50:56;;;;;;;27.98;17.35;;;10.30;88.70;;;;;;4971816;28;20217;-73
2021/04/19 08:53:23;;;;;;;27.30;17.70;;;10.30;88.70;;;;;;4970162;28;20034;-75
2021/04/19 08:55:49;;;;;;;26.90;16.63;;;10.50;88.40;;;;;;4968780;28;20115;-74
2021/04/19 08:58:18;;;;;;;26.08;16.35;;;10.50;88.20;;;;;;4968314;28;20026;-74
2021/04/19 09:00:48;;;;;;;28.50;17.55;;;10.50;87.80;;;;;;4971384;28;20030;-74
2021/04/19 09:03:18;;;;;;;27.63;17.15;;;10.50;88.20;;;;;;4970949;28;20029;-74
2021/04/19 09:05:46;;;;;;;25.85;15.88;;;10.60;88.30;;;;;;4967423;28;20039;-74
2021/04/19 09:08:15;;;;;;;27.27;16.40;;;10.70;87.60;;;;;;4968515;28;20027;-74
2021/04/19 09:10:56;;;;;;;24.08;16.00;;;10.70;87.50;;;;;;4994843;28;20054;-75
2021/04/19 09:13:34;;;;;;;24.65;15.30;;;10.60;87.50;;;;;;4967869;28;20350;-76
2021/04/19 09:16:24;;;;;;;26.25;16.13;;;10.60;87.50;;;;;;4982831;28;20066;-76
2021/04/19 09:18:58;;;;;;;26.52;16.42;;;10.70;87.40;;;;;;4964536;28;20066;-75
2021/04/19 09:21:44;;;;;;;23.25;15.27;;;10.80;87.10;;;;;;4967552;28;20098;-74
2021/04/19 09:24:12;;;;;;;25.25;15.73;;;10.70;86.90;;;;;;4960718;28;20046;-75
2021/04/19 09:26:50;;;;;;;24.20;14.90;;;10.70;87.10;;;;;;4962545;28;20030;-76
2021/04/19 09:29:25;;;;;;;25.55;14.60;;;10.80;87.50;;;;;;4966603;28;20066;-76
2021/04/19 09:32:05;;;;;;;24.85;15.35;;;10.90;87.60;;;;;;4965362;28;20070;-75
2021/04/19 09:34:45;;;;;;;23.35;15.00;;;11.00;86.60;;;;;;4966196;28;20035;-72
2021/04/19 09:37:14;;;;;;;24.85;15.50;;;11.00;86.70;;;;;;4963587;28;20035;-75
2021/04/19 09:39:50;;;;;;;21.88;14.05;;;11.00;86.20;;;;;;4963060;28;20058;-71
2021/04/19 09:42:38;;;;;;;23.65;14.88;;;11.10;86.60;;;;;;4964090;28;20474;-77
2021/04/19 09:45:04;;;;;;;22.13;14.23;;;11.10;86.20;;;;;;4979828;28;20074;-75
2021/04/19 09:48:02;;;;;;;23.05;14.35;;;11.30;86.50;;;;;;4964792;28;20062;-73
2021/04/19 09:50:30;;;;;;;22.45;14.93;;;11.40;86.20;;;;;;4956282;28;20564;-75
2021/04/19 09:52:55;;;;;;;23.80;15.80;;;11.60;85.40;;;;;;4962433;28;20362;-76
2021/04/19 09:55:22;;;;;;;17.05;9.82;;;11.60;84.80;;;;;;4963546;28;20078;-75
2021/04/19 09:57:49;;;;;;;17.80;11.88;;;12.00;85.90;;;;;;4965461;28;20033;-75
2021/04/19 10:00:18;;;;;;;22.55;14.52;;;12.30;84.10;;;;;;4965133;28;20035;-75
2021/04/19 10:02:44;;;;;;;16.90;11.43;;;12.40;82.60;;;;;;4964546;28;20037;-76
2021/04/19 10:05:11;;;;;;;22.10;14.40;;;12.60;82.10;;;;;;4964425;28;20027;-76
2021/04/19 10:07:43;;;;;;;23.48;14.68;;;12.70;81.50;;;;;;4961431;28;20054;-76
2021/04/19 10:10:09;;;;;;;;;;;12.60;81.10;;;;;;4966605;28;20112;-75
2021/04/19 10:12:42;;;;;;;21.00;14.07;;;12.60;81.60;;;;;;4964484;28;19914;-75
2021/04/19 10:15:25;;;;;;;21.13;15.20;;;12.50;81.80;;;;;;4962037;28;20074;-73
2021/04/19 10:17:51;;;;;;;20.95;14.45;;;12.60;81.90;;;;;;4962080;28;20039;-76
2021/04/19 10:20:25;;;;;;;23.50;15.00;;;12.60;81.70;;;;;;4966066;28;20033;-75
2021/04/19 10:23:12;;;;;;;22.02;15.15;;;12.50;81.70;;;;;;4961120;28;20130;-72
2021/04/19 10:25:51;;;;;;;20.70;14.00;;;12.60;81.60;;;;;;4961160;28;20033;-69
2021/04/19 10:28:35;;;;;;;19.27;13.88;;;12.60;81.90;;;;;;4963385;28;20033;-71
2021/04/19 10:31:19;;;;;;;24.02;16.08;;;12.50;81.80;;;;;;4964396;28;20113;-71
2021/04/19 10:33:55;;;;;;;21.25;14.60;;;12.70;82.20;;;;;;4968662;28;20594;-71
2021/04/19 10:36:29;;;;;;;21.88;14.52;;;12.70;81.80;;;;;;4987454;23;20583;-69
2021/04/19 10:38:57;;;;;;;23.45;15.35;;;12.70;81.70;;;;;;4964991;28;20019;-69
2021/04/19 10:41:33;;;;;;;24.27;15.57;;;12.80;81.70;;;;;;4964966;28;20027;-70
2021/04/19 10:43:59;;;;;;;21.45;14.30;;;12.80;81.00;;;;;;4964821;28;20415;-68
2021/04/19 10:46:29;;;;;;;21.42;14.55;;;12.80;81.40;;;;;;4952688;28;20472;-68
2021/04/19 10:48:57;;;;;;;23.58;14.80;;;12.90;80.30;;;;;;4945592;28;20073;-67
2021/04/19 10:51:31;;;;;;;23.27;16.00;;;13.00;79.80;;;;;;4944027;28;20028;-68
2021/04/19 10:53:59;;;;;;;23.27;14.82;;;12.90;80.20;;;;;;4943657;28;20520;-70
2021/04/19 10:56:26;;;;;;;22.60;14.50;;;13.00;80.90;;;;;;4943558;28;20053;-69
2021/04/19 10:58:58;;;;;;;21.00;13.98;;;13.10;80.70;;;;;;4944820;28;20401;-70
2021/04/19 11:01:30;;;;;;;22.40;14.48;;;13.10;79.90;;;;;;4941343;28;20057;-70
2021/04/19 11:03:57;;;;;;;22.15;14.40;;;13.10;80.00;;;;;;4948430;28;20042;-70
2021/04/19 11:06:23;;;;;;;20.38;14.13;;;13.10;80.20;;;;;;4950580;28;20382;-70
2021/04/19 11:09:01;;;;;;;21.15;13.50;;;13.20;81.20;;;;;;4949083;28;20046;-69
2021/04/19 11:11:37;;;;;;;18.08;13.00;;;13.50;80.10;;;;;;4950734;28;20111;-72
2021/04/19 11:14:35;;;;;;;19.30;12.77;;;13.70;79.60;;;;;;4954285;29;20066;-72
2021/04/19 11:17:05;;;;;;;16.75;11.90;;;14.40;78.20;;;;;;4949788;29;20067;-71
2021/04/19 11:19:43;;;;;;;14.90;10.60;;;15.40;75.90;;;;;;4946631;28;20066;-70
2021/04/19 11:22:28;;;;;;;13.32;10.77;;;16.50;72.00;;;;;;4948520;28;20031;-70
2021/04/19 11:25:09;;;;;;;14.68;11.23;;;17.70;68.30;;;;;;4948610;28;20426;-71
2021/04/19 11:27:35;;;;;;;13.23;11.05;;;18.30;64.40;;;;;;4947698;28;20059;-73
2021/04/19 11:30:01;;;;;;;13.07;9.85;;;18.80;64.50;;;;;;4948564;28;20105;-72
2021/04/19 11:32:35;;;;;;;10.95;8.95;;;19.30;61.70;;;;;;4954051;28;20110;-72
2021/04/19 11:35:02;;;;;;;11.63;9.52;;;19.80;56.80;;;;;;4953029;28;20038;-71
2021/04/19 11:37:36;;;;;;;13.93;10.48;;;19.90;57.70;;;;;;4952209;28;20390;-72
2021/04/19 11:40:05;;;;;;;12.07;9.93;;;20.00;53.40;;;;;;4955599;28;20114;-71
2021/04/19 11:42:35;;;;;;;13.35;10.60;;;20.00;55.70;;;;;;4961407;28;20031;-69
2021/04/19 11:45:04;;;;;;;12.05;9.48;;;20.00;56.40;;;;;;4949457;28;20027;-69
2021/04/19 11:47:32;;;;;;;11.05;9.15;;;20.30;51.20;;;;;;4946191;28;20031;-69
2021/04/19 11:49:58;;;;;;;15.68;10.68;;;20.30;53.00;;;;;;4948339;28;20070;-70
2021/04/19 11:52:25;;;;;;;10.90;9.32;;;20.40;54.70;;;;;;4949796;28;20039;-69
2021/04/19 11:54:51;;;;;;;12.45;9.30;;;20.40;51.70;;;;;;4961303;28;20085;-70
2021/04/19 11:57:17;;;;;;;12.45;9.05;;;20.80;50.90;;;;;;4945903;28;20035;-69
2021/04/19 11:59:43;;;;;;;11.93;8.65;;;20.30;52.80;;;;;;4948513;28;20505;-69
2021/04/19 12:02:09;;;;;;;12.52;8.50;;;20.00;55.30;;;;;;4956866;28;20158;-69
2021/04/19 12:04:35;;;;;;;10.70;8.40;;;20.00;54.10;;;;;;4951782;28;20489;-69
2021/04/19 12:07:02;;;;;;;10.80;8.50;;;19.90;54.80;;;;;;4946594;28;20059;-69
2021/04/19 12:09:27;;;;;;;12.68;8.38;;;19.80;54.30;;;;;;4948172;28;20039;-69
2021/04/19 12:11:54;;;;;;;10.52;7.78;;;19.70;53.00;;;;;;4947220;28;20155;-70
2021/04/19 12:14:20;;;;;;;9.38;7.60;;;19.30;55.40;;;;;;4947835;28;20411;-69
2021/04/19 12:16:46;;;;;;;8.02;6.45;;;19.20;54.90;;;;;;4945226;28;20039;-68
2021/04/19 12:19:13;;;;;;;8.65;5.60;;;19.20;56.00;;;;;;4942623;28;20031;-69
2021/04/19 12:21:40;;;;;;;8.75;6.32;;;19.20;55.30;;;;;;4946913;28;20115;-69
2021/04/19 12:24:06;;;;;;;9.55;6.53;;;19.30;55.70;;;;;;4946627;28;20031;-68
2021/04/19 12:26:32;;;;;;;7.25;5.82;;;19.40;54.50;;;;;;4947938;28;20035;-69
2021/04/19 12:28:58;;;;;;;7.15;6.10;;;19.50;53.20;;;;;;4950896;28;20389;-70
2021/04/19 12:31:32;;;;;;;7.40;6.40;;;19.50;54.50;;;;;;4947436;28;20212;-69
2021/04/19 12:33:58;;;;;;;7.38;5.85;;;19.70;53.50;;;;;;4946299;28;20373;-69
2021/04/19 12:36:24;;;;;;;6.93;5.40;;;19.80;53.20;;;;;;4947868;28;20027;-69
2021/04/19 12:38:49;;;;;;;5.88;4.70;;;20.00;52.80;;;;;;4946151;28;20421;-69
2021/04/19 12:41:15;;;;;;;12.32;5.60;;;20.30;51.70;;;;;;4944941;28;20038;-69
2021/04/19 12:43:44;;;;;;;6.22;4.38;;;20.70;49.40;;;;;;4948299;28;20499;-68
2021/04/19 12:46:09;;;;;;;7.72;4.38;;;20.90;47.60;;;;;;4945044;28;20042;-69
2021/04/19 12:48:35;;;;;;;4.80;3.47;;;20.90;48.00;;;;;;4944847;28;20404;-69
2021/04/19 12:51:01;;;;;;;5.88;3.80;;;20.90;48.70;;;;;;4947565;28;20039;-69
2021/04/19 12:53:26;;;;;;;5.72;4.00;;;21.00;47.70;;;;;;4946881;28;20031;-68